Agrinion, Greece
Current Conditions -  °F | °C
As of 2:50 AM on Monday 24 Nov 2014 (Local Time) from LGRX Reporting Station
Clear Clear  
Wind Chill: 52°   Ceiling: Unl
Heat Index: 52°   Visibility: 6mi
Dew Point: 37°   Wind: 9mph
Humidity: 58%   Direction: 60°ENE
Pressure: 30.21"   Gusts: NA
Location:  38.62°N, 21.41°E
Report Text: LGRX 232350Z 06008KT CAVOK 11/03 Q1023
Loading
Personal Weather Stations






























Interactive Weather Map New forecast layout! Learn more

10-Day Weather Forecast

Advertisements
Track Severe Weather on mobile